• Join FlightAware (Why Join?)
  • Login
  • US Flag 
09:25AM EDT


 

Airport Tracker/Info


-or-


 

Live Flight TrackerFlight Track Log ✈ UAL4180 ✈ 10-Nov-2013 ✈ KRIC - KORD

Flight Track Log - Related Links

Times and Time Zones

All times are in EST time to prevent confusion due to time zone crossing. See the UAL4180 flight status page for this flight to view local times or setup timezone preferences in your user account.

Time Position Orientation Groundspeed Altitude Reporting Facility
EST Latitude Longitude Course Direction KTS MPH feet Rate Location/Type
02:00PM 37.4386 -77.3572 250° West 163 188 2,700  Level Washington Center
02:01PM 37.4314 -77.4172 261° West 162 186 4,800 2,040 Climbing Washington Center
02:02PM 37.6533 -77.6185 254° West  Level Estimated
02:02PM 37.4553 -77.4911 292° West 170 196 6,800  Level Washington Center
02:03PM 37.7024 -77.7183 270° West  Level Estimated
02:03PM 37.4458 -77.5667 261° West 201 231 9,100  Level Washington Center
02:04PM 37.7515 -77.8183 250° West  Level Estimated
02:04PM 37.4297 -77.6500 256° West 227 261 10,800  Level Washington Center
02:05PM 37.4072 -77.7514 254° West 264 304 11,900 960 Climbing Washington Center
02:06PM 37.3844 -77.8581 255° West 281 323 12,800 900 Climbing Washington Center
02:07PM 37.3614 -77.9644 255° West 308 354 13,700 1,020 Climbing Washington Center
02:08PM 37.3406 -78.0736 257° West 321 369 14,900 1,140 Climbing Washington Center
02:09PM 37.3175 -78.1719 254° West 326 375 16,000 1,200 Climbing Washington Center
02:10PM 37.2961 -78.2939 258° West 326 375 17,400 1,140 Climbing Washington Center
02:11PM 37.3356 -78.3919 297° West 298 343 18,300 900 Climbing Washington Center
02:12PM 37.4022 -78.4756 315° West 313 360 19,200 840 Climbing Washington Center
02:13PM 37.4711 -78.5619 315° West 329 379 20,100 900 Climbing Washington Center
02:14PM 37.5339 -78.6375 316° Northwest 344 396 21,000 840 Climbing Washington Center
02:15PM 37.6047 -78.7269 315° West 349 402 21,800 840 Climbing Washington Center
02:16PM 37.6731 -78.8164 314° West 354 407 22,700 960 Climbing Washington Center
02:17PM 37.7519 -78.9144 316° Northwest 354 407 23,700 600 Climbing Washington Center
02:18PM 37.8244 -79.0069 315° West 354 407 24,000 120 Climbing Washington Center
02:19PM 37.8967 -79.1022 314° West 359 413 24,000  Level Washington Center
02:20PM 37.9667 -79.2031 311° West 369 425 24,000  Level Washington Center
02:21PM 38.0306 -79.2983 310° West 386 444 24,000  Level Washington Center
02:23PM 38.1489 -79.4806 310° West 389 448 24,000  Level Indianapolis Center
02:24PM 38.2164 -79.5814 310° West 388 447 24,000  Level Indianapolis Center
02:25PM 38.2817 -79.6828 309° West 383 441 24,000  Level Indianapolis Center
02:26PM 38.3628 -79.8058 310° West 389 448 24,000  Level Indianapolis Center
02:27PM 38.4294 -79.9081 310° West 386 444 24,000  Level Indianapolis Center
02:28PM 38.4969 -80.0097 310° West 387 445 24,000  Level Indianapolis Center
02:29PM 38.5761 -80.1314 310° West 383 441 24,000  Level Indianapolis Center
02:30PM 38.6392 -80.2289 310° West 383 441 24,000  Level Indianapolis Center
02:31PM 38.7053 -80.3322 309° West 378 435 24,000  Level Indianapolis Center
02:32PM 38.7703 -80.4367 309° West 376 433 24,000  Level Indianapolis Center
02:33PM 38.8383 -80.5697 303° West 371 427 24,000  Level Indianapolis Center
02:34PM 38.8939 -80.6811 303° West 372 428 24,000  Level Indianapolis Center
02:35PM 38.9492 -80.7919 303° West 369 425 24,000  Level Indianapolis Center
02:36PM 39.0042 -80.9031 303° West 370 426 24,000  Level Indianapolis Center
02:37PM 39.0581 -81.0139 302° West 368 423 24,000  Level Indianapolis Center
02:38PM 39.1247 -81.1486 303° West 373 429 24,000  Level Indianapolis Center
02:39PM 39.1789 -81.2597 302° West 369 425 24,000  Level Indianapolis Center
02:40PM 39.2331 -81.3711 302° West 368 423 24,000  Level Indianapolis Center
02:41PM 39.2875 -81.4831 302° West 369 425 24,000  Level Indianapolis Center
02:42PM 39.3417 -81.5947 302° West 369 425 24,000  Level Indianapolis Center
02:44PM 39.3958 -81.7072 302° West 369 425 24,000  Level Indianapolis Center
02:45PM 39.4606 -81.8417 302° West 367 422 24,000  Level Indianapolis Center
02:46PM 39.5142 -81.9547 302° West 368 423 24,000  Level Indianapolis Center
02:47PM 39.5681 -82.0683 302° West 370 426 24,000  Level Indianapolis Center
02:48PM 39.6200 -82.1775 302° West 367 422 24,000  Level Indianapolis Center
02:49PM 39.6736 -82.2906 302° West 369 425 24,000  Level Indianapolis Center
02:50PM 39.7372 -82.4253 302° West 367 422 24,000  Level Indianapolis Center
02:51PM 39.7903 -82.5392 301° West 368 423 24,000  Level Indianapolis Center
02:52PM 39.8436 -82.6514 302° West 368 423 24,000  Level Indianapolis Center
02:53PM 39.8956 -82.7650 301° West 367 422 24,000  Level Indianapolis Center
02:54PM 39.9483 -82.8775 301° West 366 421 24,000  Level Indianapolis Center
02:55PM 40.0003 -82.9892 301° West 364 419 24,000  Level Indianapolis Center
02:56PM 40.0622 -83.1242 301° West 364 419 24,000  Level Indianapolis Center
02:57PM 40.1136 -83.2367 301° West 364 419 24,000  Level Indianapolis Center
02:58PM 40.1650 -83.3492 301° West 365 420 24,000  Level Indianapolis Center
02:59PM 40.2167 -83.4622 301° West 365 420 24,100 300 Climbing Indianapolis Center
03:00PM 40.2764 -83.5939 301° West 355 409 24,700 420 Climbing Indianapolis Center
03:01PM 40.3250 -83.7025 300° West 349 402 25,000 120 Climbing Indianapolis Center
03:02PM 40.3750 -83.8131 301° West 353 406 25,000  Level Indianapolis Center
03:03PM 40.4253 -83.9250 301° West 357 411 25,000  Level Indianapolis Center
03:04PM 40.4764 -84.0375 301° West 360 414 25,000  Level Indianapolis Center
03:05PM 40.5269 -84.1514 300° West 361 415 25,000  Level Indianapolis Center
03:06PM 40.5881 -84.2886 300° West 363 418 25,000  Level Indianapolis Center
03:07PM 40.6361 -84.3994 300° West 352 405 25,000  Level Indianapolis Center
03:08PM 40.6850 -84.5092 300° West 349 402 25,000  Level Indianapolis Center
03:09PM 40.7333 -84.6183 300° West 346 398 25,000  Level Indianapolis Center
03:10PM 40.7672 -84.6942 301° West 346 398 25,000  Level Chicago Center
03:11PM 40.8156 -84.8033 300° West 346 398 25,000  Level Chicago Center
03:12PM 40.9183 -84.8819 330° Northwest 360 414 25,000  Level Chicago Center
03:13PM 41.0069 -84.9444 332° Northwest 361 415 25,000  Level Chicago Center
03:14PM 41.0964 -85.0072 332° Northwest 363 418 25,000  Level Chicago Center
03:15PM 41.1856 -85.0689 333° Northwest 362 417 25,000  Level Chicago Center
03:16PM 41.2739 -85.1322 332° Northwest 361 415 25,000  Level Chicago Center
03:17PM 41.3217 -85.2361 302° West 350 403 25,000  Level Chicago Center
03:18PM 41.3161 -85.3892 267° West 343 395 25,000  Level Chicago Center
03:19PM 41.3097 -85.5183 266° West 347 399 25,000  Level Chicago Center
03:20PM 41.3033 -85.6475 266° West 348 400 25,000  Level Chicago Center
03:21PM 41.2958 -85.7778 266° West 352 405 25,000  Level Chicago Center
03:23PM 41.3008 -85.9089 273° West 360 414 25,000  Level Chicago Center
03:24PM 41.3350 -86.0308 290° West 354 407 25,000 -60 Level Chicago Center
03:25PM 41.3683 -86.1567 289° West 359 413 24,900 -1,080 Descending Chicago Center
03:26PM 41.4100 -86.3081 290° West 362 417 22,800 -2,280 Descending Chicago Center
03:27PM 41.4422 -86.4322 289° West 357 411 20,300 -2,520 Descending Chicago Center
03:28PM 41.4733 -86.5486 290° West 339 390 17,700 -2,100 Descending Chicago Center
03:29PM 41.5036 -86.6625 290° West 328 377 16,000 -1,860 Descending Chicago Center
03:30PM 41.5725 -86.7436 319° Northwest 332 382 13,900 -1,800 Descending Chicago Center
03:31PM 41.6503 -86.7897 336° Northwest 312 359 12,300 -1,260 Descending Chicago Center
03:32PM 41.7356 -86.8044 353° North 315 362 11,300 -600 Descending Chicago Center
03:33PM 41.8389 -86.8242 352° North 314 361 11,100 -120 Descending Chicago Center
03:34PM 41.9103 -86.8814 329° Northwest 310 357 11,100 -420 Level Chicago Center
03:35PM 41.9508 -86.9817 299° West 314 361 10,300 -540 Descending Chicago Center
03:36PM 41.9814 -87.0858 292° West 306 352 10,000 -300 Descending Chicago Center
03:37PM 41.9806 -87.1864 269° West 273 314 9,800 -720 Descending Chicago Center
03:38PM 41.9842 -87.2989 273° West 255 293 8,600 -960 Descending Chicago Center
03:39PM 41.9822 -87.3933 268° West 256 295 7,800 -840 Descending Chicago Center
03:40PM 41.9833 -87.4861 271° West 253 291 6,900 -1,200 Descending Chicago Center
03:41PM 41.9825 -87.5769 269° West 249 287 5,400 -1,440 Descending Chicago Center
03:42PM 41.9842 -87.6672 271° West 247 284 4,000 -1,380 Descending Chicago Center
03:43PM 41.9836 -87.7678 270° West 238 274 2,600 -1,020 Descending Chicago Center
03:44PM 41.9847 -87.8297 271° West 200 230 1,900 -600 Descending Chicago Center
03:45PM 41.9853 -87.8761 271° West 174 200 1,400 -540 Descending Chicago Center